Time;durP1;ratioP1;P1;durP2;ratioP2;P2;SDS_P1;SDS_P2;PMS_P1;PMS_P2;Temp;Humidity;BMP_temperature;BMP_pressure;BME280_temperature;BME280_humidity;BME280_pressure;Samples;Min_cycle;Max_cycle;Signal;HPM_P1;HPM_P2
2022/11/21 00:01:44;;;;;;;70.65;8.45;;;7.70;99.90;;;;;;5043838;28;20264;-86
2022/11/21 00:04:32;;;;;;;73.30;11.23;;;7.70;99.90;;;;;;5023913;28;20222;-86
2022/11/21 00:07:00;;;;;;;74.13;13.55;;;7.80;99.90;;;;;;5043863;28;20546;-87
2022/11/21 00:09:35;;;;;;;78.80;10.98;;;7.80;99.90;;;;;;5044020;28;20180;-86
2022/11/21 00:12:10;;;;;;;78.38;10.43;;;7.80;99.90;;;;;;5045558;28;20145;-86
2022/11/21 00:14:36;;;;;;;79.75;10.45;;;7.80;99.90;;;;;;5046127;28;20537;-86
2022/11/21 00:17:01;;;;;;;78.37;13.30;;;7.80;99.90;;;;;;5046434;28;20173;-86
2022/11/21 00:19:27;;;;;;;81.03;12.50;;;7.80;99.90;;;;;;5045477;28;20263;-86
2022/11/21 00:21:55;;;;;;;95.93;45.70;;;7.80;99.90;;;;;;5043917;28;20165;-86
2022/11/21 00:24:27;;;;;;;76.32;12.50;;;7.80;99.90;;;;;;5045690;28;20157;-86
2022/11/21 00:26:53;;;;;;;74.28;10.07;;;7.80;99.90;;;;;;5045348;28;20146;-86
2022/11/21 00:29:24;;;;;;;76.77;11.00;;;7.80;99.90;;;;;;5045506;28;20192;-86
2022/11/21 00:31:53;;;;;;;85.65;12.93;;;7.80;99.90;;;;;;5046178;28;20187;-87
2022/11/21 00:34:22;;;;;;;72.68;10.35;;;7.80;99.90;;;;;;5045615;28;20168;-86
2022/11/21 00:40:24;;;;;;;;;;;;;;;;;;;;;
2022/11/21 00:42:50;;;;;;;74.25;9.73;;;7.80;99.90;;;;;;5045980;28;20252;-86
2022/11/21 00:45:19;;;;;;;78.27;10.60;;;7.80;99.90;;;;;;5045054;28;20220;-86
2022/11/21 00:47:47;;;;;;;79.28;9.95;;;7.80;99.90;;;;;;5043886;28;20179;-87
2022/11/21 00:50:13;;;;;;;73.95;9.55;;;7.80;99.90;;;;;;5045070;28;20185;-86
2022/11/21 00:52:42;;;;;;;72.17;10.20;;;7.70;99.90;;;;;;5044519;28;20189;-86
2022/11/21 00:55:11;;;;;;;71.38;10.00;;;7.70;99.90;;;;;;5044878;28;20173;-86
2022/11/21 00:57:39;;;;;;;80.75;10.10;;;7.70;99.90;;;;;;5043785;28;20189;-86
2022/11/21 01:00:14;;;;;;;80.03;11.88;;;7.60;99.90;;;;;;5043322;28;20705;-86
2022/11/21 01:02:43;;;;;;;81.38;11.38;;;7.70;99.90;;;;;;5044862;28;20145;-86
2022/11/21 01:05:09;;;;;;;75.30;10.38;;;7.70;99.90;;;;;;5044889;28;20240;-86
2022/11/21 01:07:35;;;;;;;79.73;11.13;;;7.60;99.90;;;;;;5043775;28;20200;-86
2022/11/21 01:10:01;;;;;;;76.63;11.07;;;7.60;99.90;;;;;;5044496;28;20236;-87
2022/11/21 01:12:29;;;;;;;71.90;10.47;;;7.60;99.90;;;;;;5044881;28;20161;-86
2022/11/21 01:14:57;;;;;;;80.90;12.63;;;7.60;99.90;;;;;;5044117;28;20392;-86
2022/11/21 01:17:23;;;;;;;69.93;9.30;;;7.60;99.90;;;;;;5044157;28;20189;-86
2022/11/21 01:19:52;;;;;;;73.27;9.90;;;7.60;99.90;;;;;;5044054;28;20255;-86
2022/11/21 01:22:21;;;;;;;80.47;11.07;;;7.60;99.90;;;;;;5043694;28;20237;-86
2022/11/21 01:24:46;;;;;;;78.65;10.05;;;7.60;99.90;;;;;;5044251;28;20635;-86
2022/11/21 01:27:12;;;;;;;68.57;10.13;;;7.60;99.90;;;;;;5044786;28;20165;-86
2022/11/21 01:29:44;;;;;;;76.80;9.67;;;7.60;99.90;;;;;;5044033;28;20181;-86
2022/11/21 01:32:10;;;;;;;78.47;8.90;;;7.60;99.90;;;;;;5045038;28;20667;-86
2022/11/21 01:34:38;;;;;;;74.20;10.57;;;7.60;99.90;;;;;;5044839;28;20251;-86
2022/11/21 01:37:04;;;;;;;73.55;10.27;;;7.60;99.90;;;;;;5043327;28;20180;-86
2022/11/21 01:39:35;;;;;;;75.77;10.87;;;7.60;99.90;;;;;;5044922;28;20212;-86
2022/11/21 01:42:01;;;;;;;81.45;9.70;;;7.60;99.90;;;;;;5044445;28;20284;-86
2022/11/21 01:44:46;;;;;;;74.33;10.70;;;7.60;99.90;;;;;;5044631;28;20176;-86
2022/11/21 01:47:12;;;;;;;73.60;10.20;;;7.60;99.90;;;;;;5045488;28;20409;-87
2022/11/21 01:49:40;;;;;;;71.53;10.03;;;7.60;99.90;;;;;;5046284;28;20180;-86
2022/11/21 01:52:32;;;;;;;75.68;10.98;;;7.60;99.90;;;;;;5042490;28;20176;-86
2022/11/21 01:55:05;;;;;;;76.03;10.20;;;7.60;99.90;;;;;;5044162;28;20173;-87
2022/11/21 01:57:45;;;;;;;96.30;11.55;;;7.60;99.90;;;;;;5045040;28;20177;-86
2022/11/21 02:00:20;;;;;;;77.72;9.82;;;7.60;99.90;;;;;;5045154;28;20181;-86
2022/11/21 02:02:55;;;;;;;78.05;9.65;;;7.60;99.90;;;;;;5045251;28;20172;-86
2022/11/21 02:05:51;;;;;;;;;;;;;;;;;;;;;
2022/11/21 02:08:22;;;;;;;77.50;10.18;;;7.60;99.90;;;;;;5045131;28;20224;-86
2022/11/21 02:11:09;;;;;;;78.32;9.45;;;7.60;99.90;;;;;;5044405;28;20670;-86
2022/11/21 02:13:35;;;;;;;71.68;9.20;;;7.60;99.90;;;;;;5043707;28;20169;-87
2022/11/21 02:16:18;;;;;;;75.30;8.47;;;7.60;99.90;;;;;;5044750;28;20169;-87
2022/11/21 02:18:44;;;;;;;80.22;10.25;;;7.60;99.90;;;;;;5045535;28;20185;-87
2022/11/21 02:21:33;;;;;;;84.27;10.27;;;7.50;99.90;;;;;;5045148;28;20666;-86
2022/11/21 02:24:14;;;;;;;71.68;8.73;;;7.50;99.90;;;;;;5043879;28;20153;-86
2022/11/21 02:26:40;;;;;;;78.25;8.55;;;7.40;99.90;;;;;;5043716;28;20192;-87
2022/11/21 02:29:06;;;;;;;75.22;7.70;;;7.40;99.90;;;;;;5044178;28;20161;-87
2022/11/21 02:31:32;;;;;;;69.70;6.82;;;7.40;99.90;;;;;;5044874;28;20172;-87
2022/11/21 02:33:58;;;;;;;73.33;7.00;;;7.50;99.90;;;;;;5044283;28;20231;-86
2022/11/21 02:36:38;;;;;;;77.30;7.90;;;7.40;99.90;;;;;;5044210;28;20165;-86
2022/11/21 02:39:13;;;;;;;71.63;7.82;;;7.40;99.90;;;;;;5042509;28;20193;-86
2022/11/21 02:41:44;;;;;;;73.97;8.15;;;7.40;99.90;;;;;;5044471;28;20684;-87
2022/11/21 02:44:26;;;;;;;81.75;8.68;;;7.40;99.90;;;;;;5042568;28;20169;-87
2022/11/21 02:46:52;;;;;;;74.63;9.13;;;7.40;99.90;;;;;;5042846;28;20169;-86
2022/11/21 02:49:37;;;;;;;68.03;7.80;;;7.40;99.90;;;;;;5042054;28;20173;-87
2022/11/21 02:52:02;;;;;;;71.88;8.00;;;7.40;99.90;;;;;;5043899;28;20153;-87
2022/11/21 02:54:31;;;;;;;74.00;8.40;;;7.40;99.90;;;;;;5042033;28;20171;-86
2022/11/21 02:56:57;;;;;;;67.88;7.53;;;7.40;99.90;;;;;;5043099;28;20169;-87
2022/11/21 02:59:22;;;;;;;68.10;6.67;;;7.40;99.90;;;;;;5044272;28;20280;-86
2022/11/21 03:01:48;;;;;;;73.10;7.83;;;7.40;99.90;;;;;;5043916;28;20161;-86
2022/11/21 03:04:17;;;;;;;69.93;7.63;;;7.40;99.90;;;;;;5041591;28;20180;-87
2022/11/21 03:06:42;;;;;;;73.15;8.57;;;7.40;99.90;;;;;;5042450;28;20162;-86
2022/11/21 03:09:08;;;;;;;70.23;7.83;;;7.30;99.90;;;;;;5043981;28;20219;-86
2022/11/21 03:11:34;;;;;;;70.77;7.33;;;7.30;99.90;;;;;;5042023;28;20169;-86
2022/11/21 03:13:59;;;;;;;72.70;6.87;;;7.30;99.90;;;;;;5044040;28;20172;-86
2022/11/21 03:16:25;;;;;;;71.53;9.30;;;7.30;99.90;;;;;;5041971;28;20260;-87
2022/11/21 03:18:51;;;;;;;72.65;7.68;;;7.30;99.90;;;;;;5041934;28;20196;-86
2022/11/21 03:21:17;;;;;;;68.77;7.23;;;7.30;99.90;;;;;;5044171;28;20188;-86
2022/11/21 03:23:43;;;;;;;66.80;7.97;;;7.30;99.90;;;;;;5042600;28;20165;-86
2022/11/21 03:26:08;;;;;;;72.10;7.23;;;7.30;99.90;;;;;;5043995;28;20403;-86
2022/11/21 03:28:34;;;;;;;73.60;7.90;;;7.30;99.90;;;;;;5042422;28;20219;-86
2022/11/21 03:30:59;;;;;;;79.23;8.20;;;7.30;99.90;;;;;;5043729;28;20189;-87
2022/11/21 03:33:42;;;;;;;70.87;8.63;;;7.30;99.90;;;;;;5042646;28;20165;-86
2022/11/21 03:36:07;;;;;;;68.95;11.18;;;7.30;99.90;;;;;;5042978;28;20595;-86
2022/11/21 03:38:38;;;;;;;71.13;8.70;;;7.30;99.90;;;;;;5043474;28;20219;-87
2022/11/21 03:41:28;;;;;;;74.07;9.77;;;7.30;99.90;;;;;;5042682;28;20439;-87
2022/11/21 03:43:52;;;;;;;72.03;8.57;;;7.20;99.90;;;;;;5043589;28;20192;-87
2022/11/21 03:46:21;;;;;;;67.97;8.27;;;7.20;99.90;;;;;;5043065;28;20193;-87
2022/11/21 03:48:47;;;;;;;67.60;8.18;;;7.20;99.90;;;;;;5044540;28;20165;-86
2022/11/21 03:51:12;;;;;;;68.93;10.17;;;7.30;99.90;;;;;;5043439;28;20229;-87
2022/11/21 03:53:38;;;;;;;72.97;8.80;;;7.20;99.90;;;;;;5042990;28;20412;-86
2022/11/21 03:56:04;;;;;;;70.03;9.57;;;7.30;99.90;;;;;;5043419;28;20169;-86
2022/11/21 03:58:32;;;;;;;68.37;7.50;;;7.30;99.90;;;;;;5042739;28;20196;-86
2022/11/21 04:01:02;;;;;;;69.32;9.00;;;7.30;99.90;;;;;;5043204;28;20192;-87
2022/11/21 04:03:30;;;;;;;69.15;8.77;;;7.30;99.90;;;;;;5042777;28;20215;-86
2022/11/21 04:05:56;;;;;;;69.10;8.45;;;7.30;99.90;;;;;;5044481;28;20161;-87
2022/11/21 04:08:23;;;;;;;74.73;7.70;;;7.30;99.90;;;;;;5042374;28;20546;-86
2022/11/21 04:10:53;;;;;;;73.53;8.70;;;7.30;99.90;;;;;;5042340;28;20236;-86
2022/11/21 04:13:19;;;;;;;75.63;9.25;;;7.30;99.90;;;;;;5042368;28;20585;-87
2022/11/21 04:15:45;;;;;;;72.80;9.70;;;7.30;99.90;;;;;;5042937;28;20169;-87
2022/11/21 04:18:14;;;;;;;70.57;9.20;;;7.30;99.90;;;;;;5043389;28;20267;-86
2022/11/21 04:20:40;;;;;;;71.72;8.85;;;7.30;99.90;;;;;;5043141;28;20182;-86
2022/11/21 04:23:09;;;;;;;74.80;8.17;;;7.30;99.90;;;;;;5043822;28;20157;-87
2022/11/21 04:25:35;;;;;;;69.82;8.95;;;7.30;99.90;;;;;;5043615;28;20766;-86
2022/11/21 04:28:04;;;;;;;69.60;8.47;;;7.30;99.90;;;;;;5044088;28;20241;-86
2022/11/21 04:30:33;;;;;;;70.65;8.95;;;7.30;99.90;;;;;;5042780;28;20204;-87
2022/11/21 04:33:02;;;;;;;75.15;9.85;;;7.30;99.90;;;;;;5042782;28;20162;-87
2022/11/21 04:35:27;;;;;;;75.50;9.00;;;7.30;99.90;;;;;;5046661;28;20275;-87
2022/11/21 04:37:53;;;;;;;73.70;8.50;;;7.30;99.90;;;;;;5045586;28;20705;-86
2022/11/21 04:40:19;;;;;;;70.37;8.97;;;7.30;99.90;;;;;;5045390;28;20181;-86
2022/11/21 04:42:46;;;;;;;68.57;8.67;;;7.30;99.90;;;;;;5046115;28;20634;-87
2022/11/21 04:45:13;;;;;;;72.82;10.15;;;7.40;99.90;;;;;;5045368;28;20684;-86
2022/11/21 04:47:41;;;;;;;74.15;10.25;;;7.40;99.90;;;;;;5046490;28;20165;-87
2022/11/21 04:50:07;;;;;;;71.70;9.85;;;7.30;99.90;;;;;;5045026;28;20196;-86
2022/11/21 04:52:34;;;;;;;73.10;11.32;;;7.30;99.90;;;;;;5047322;28;20180;-86
2022/11/21 04:54:59;;;;;;;70.60;10.20;;;7.30;99.90;;;;;;5046735;28;20196;-86
2022/11/21 04:57:27;;;;;;;70.33;10.53;;;7.30;99.90;;;;;;5047078;28;20197;-86
2022/11/21 04:59:54;;;;;;;71.03;9.80;;;7.40;99.90;;;;;;5046952;28;20268;-86
2022/11/21 05:02:20;;;;;;;70.93;8.85;;;7.30;99.90;;;;;;5046956;28;20157;-87
2022/11/21 05:04:46;;;;;;;68.97;9.83;;;7.30;99.90;;;;;;5047189;28;20180;-86
2022/11/21 05:07:12;;;;;;;68.50;10.03;;;7.30;99.90;;;;;;5046690;28;20172;-86
2022/11/21 05:09:38;;;;;;;73.18;10.27;;;7.30;99.90;;;;;;5045533;28;20189;-86
2022/11/21 05:14:48;;;;;;;71.95;9.73;;;7.40;99.90;;;;;;5046939;28;20161;-87
2022/11/21 05:17:14;;;;;;;80.40;10.55;;;7.30;99.90;;;;;;5045624;28;20173;-87
2022/11/21 05:19:39;;;;;;;76.60;11.57;;;7.30;99.90;;;;;;5046735;28;20203;-87
2022/11/21 05:22:05;;;;;;;73.10;10.20;;;7.40;99.90;;;;;;5045034;28;20173;-86
2022/11/21 05:24:31;;;;;;;72.20;11.00;;;7.40;99.90;;;;;;5046188;28;20162;-86
2022/11/21 05:26:57;;;;;;;77.20;11.00;;;7.40;99.90;;;;;;5046492;28;20404;-87
2022/11/21 05:29:22;;;;;;;75.20;11.20;;;7.40;99.90;;;;;;5044325;28;20660;-87
2022/11/21 05:31:48;;;;;;;76.03;12.03;;;7.30;99.90;;;;;;5044468;28;20169;-86
2022/11/21 05:34:14;;;;;;;75.47;9.43;;;7.40;99.90;;;;;;5045598;28;20291;-86
2022/11/21 05:36:39;;;;;;;74.23;11.47;;;7.40;99.90;;;;;;5045296;28;20181;-86
2022/11/21 05:39:05;;;;;;;72.47;10.30;;;7.40;99.90;;;;;;5044433;28;20201;-86
2022/11/21 05:41:31;;;;;;;77.10;11.43;;;7.40;99.90;;;;;;5045646;28;20459;-87
2022/11/21 05:46:27;;;;;;;75.00;12.50;;;7.40;99.90;;;;;;5080382;28;20210;-84
2022/11/21 05:48:54;;;;;;;73.40;11.73;;;7.40;99.90;;;;;;5083351;28;20168;-84
2022/11/21 05:51:20;;;;;;;74.90;11.48;;;7.40;99.90;;;;;;5061585;28;20208;-84
2022/11/21 05:53:47;;;;;;;69.65;10.90;;;7.40;99.90;;;;;;5059517;28;20175;-83
2022/11/21 05:56:17;;;;;;;74.82;12.63;;;7.40;99.90;;;;;;5061302;28;20169;-84
2022/11/21 05:58:43;;;;;;;74.68;9.75;;;7.40;99.90;;;;;;5061589;28;20184;-83
2022/11/21 06:01:11;;;;;;;72.57;10.45;;;7.30;99.90;;;;;;5060466;28;20211;-84
2022/11/21 06:03:39;;;;;;;73.18;11.50;;;7.30;99.90;;;;;;5061663;28;20161;-84
2022/11/21 06:06:09;;;;;;;78.97;11.20;;;7.30;99.90;;;;;;5061483;28;20217;-83
2022/11/21 06:08:37;;;;;;;71.88;10.38;;;7.30;99.90;;;;;;5060184;28;20545;-84
2022/11/21 06:11:04;;;;;;;72.85;11.60;;;7.30;99.90;;;;;;5061302;28;20219;-84
2022/11/21 06:13:32;;;;;;;73.57;12.35;;;7.30;99.90;;;;;;5044312;28;20179;-84
2022/11/21 06:16:14;;;;;;;73.57;12.38;;;7.30;99.90;;;;;;5062223;28;20160;-84
2022/11/21 06:18:44;;;;;;;78.22;12.23;;;7.30;99.90;;;;;;5060398;28;20196;-84
2022/11/21 06:21:21;;;;;;;75.15;11.65;;;7.30;99.90;;;;;;5061655;28;20188;-84
2022/11/21 06:23:50;;;;;;;70.40;10.32;;;7.40;99.90;;;;;;5061896;28;20149;-83
2022/11/21 06:26:19;;;;;;;69.63;10.57;;;7.40;99.90;;;;;;5060920;28;20564;-83
2022/11/21 06:28:45;;;;;;;75.30;11.40;;;7.40;99.90;;;;;;5061635;28;20176;-84
2022/11/21 06:31:13;;;;;;;78.07;11.73;;;7.40;99.90;;;;;;5061809;28;20184;-84
2022/11/21 06:33:41;;;;;;;71.97;11.48;;;7.30;99.90;;;;;;5061988;28;20313;-84
2022/11/21 06:36:12;;;;;;;78.72;11.90;;;7.30;99.90;;;;;;5061455;28;20191;-84
2022/11/21 06:38:38;;;;;;;77.90;11.38;;;7.40;99.90;;;;;;5061135;28;20202;-84
2022/11/21 06:41:15;;;;;;;70.68;10.63;;;7.40;99.90;;;;;;5059703;28;20211;-84
2022/11/21 06:43:41;;;;;;;78.15;11.45;;;7.30;99.90;;;;;;5059093;28;20160;-84
2022/11/21 06:46:07;;;;;;;75.65;11.15;;;7.40;99.90;;;;;;5060537;28;20180;-84
2022/11/21 06:48:35;;;;;;;74.07;11.05;;;7.40;99.90;;;;;;5059707;28;20168;-83
2022/11/21 06:51:17;;;;;;;71.82;9.82;;;7.50;99.90;;;;;;5061258;28;20204;-83
2022/11/21 06:53:43;;;;;;;73.00;10.18;;;7.50;99.90;;;;;;5060850;28;20161;-84
2022/11/21 06:56:09;;;;;;;69.43;8.70;;;7.40;99.90;;;;;;5061001;28;20684;-84
2022/11/21 06:58:35;;;;;;;73.37;10.40;;;7.40;99.90;;;;;;5061006;28;20192;-85
2022/11/21 07:01:05;;;;;;;72.50;10.40;;;7.40;99.90;;;;;;5063503;28;20678;-84
2022/11/21 07:03:31;;;;;;;68.10;9.95;;;7.30;99.90;;;;;;5062587;28;20407;-85
2022/11/21 07:06:00;;;;;;;71.13;8.98;;;7.20;99.90;;;;;;5064456;28;20164;-86
2022/11/21 07:08:27;;;;;;;70.85;9.15;;;7.20;99.90;;;;;;5064409;28;20164;-86
2022/11/21 07:10:53;;;;;;;71.13;9.88;;;7.20;99.90;;;;;;5066232;28;20199;-86
2022/11/21 07:13:22;;;;;;;73.07;10.63;;;7.20;99.90;;;;;;5064905;28;20157;-86
2022/11/21 07:15:53;;;;;;;73.75;11.43;;;7.20;99.90;;;;;;5063756;28;20475;-86
2022/11/21 07:18:20;;;;;;;73.78;10.98;;;7.30;99.90;;;;;;5063596;28;20181;-85
2022/11/21 07:20:46;;;;;;;74.72;9.85;;;7.30;99.90;;;;;;5062825;28;20181;-85
2022/11/21 07:23:12;;;;;;;71.90;9.80;;;7.40;99.90;;;;;;5063147;28;20167;-85
2022/11/21 07:25:38;;;;;;;74.85;10.82;;;7.40;99.90;;;;;;5061957;28;20908;-86
2022/11/21 07:28:06;;;;;;;78.40;11.15;;;7.40;99.90;;;;;;5062132;28;20242;-86
2022/11/21 07:30:31;;;;;;;72.78;11.43;;;7.40;99.90;;;;;;5060425;28;20617;-86
2022/11/21 07:32:59;;;;;;;72.00;11.13;;;7.40;99.90;;;;;;5061115;28;20165;-86
2022/11/21 07:35:25;;;;;;;68.97;9.25;;;7.50;99.90;;;;;;5061663;28;20165;-85
2022/11/21 07:37:51;;;;;;;71.85;10.85;;;7.60;99.90;;;;;;5061594;28;20196;-85
2022/11/21 07:40:18;;;;;;;70.80;9.60;;;7.50;99.90;;;;;;5061512;28;20211;-86
2022/11/21 07:42:43;;;;;;;80.22;11.00;;;7.60;99.90;;;;;;5060184;28;20160;-85
2022/11/21 07:45:10;;;;;;;72.57;10.77;;;7.60;99.90;;;;;;5060808;28;20184;-85
2022/11/21 07:47:36;;;;;;;71.25;9.88;;;7.50;99.90;;;;;;5059978;28;20927;-85
2022/11/21 07:50:01;;;;;;;68.80;10.27;;;7.50;99.90;;;;;;5059101;28;20195;-85
2022/11/21 07:52:29;;;;;;;69.40;11.57;;;7.50;99.90;;;;;;5061247;28;20223;-86
2022/11/21 07:54:55;;;;;;;72.40;11.30;;;7.50;99.90;;;;;;5060765;28;20168;-85
2022/11/21 07:57:21;;;;;;;76.88;10.63;;;7.50;99.90;;;;;;5061003;28;20168;-84
2022/11/21 07:59:47;;;;;;;72.00;13.10;;;7.60;99.90;;;;;;5060667;28;20188;-85
2022/11/21 08:02:22;;;;;;;70.37;11.03;;;7.50;99.90;;;;;;5063149;28;20630;-86
2022/11/21 08:04:48;;;;;;;68.97;10.55;;;7.60;99.90;;;;;;5062548;28;20739;-85
2022/11/21 08:07:19;;;;;;;77.63;9.20;;;7.60;99.90;;;;;;5062018;28;20171;-84
2022/11/21 08:09:45;;;;;;;71.22;10.45;;;7.60;99.90;;;;;;5066746;28;20458;-85
2022/11/21 08:12:11;;;;;;;74.05;9.50;;;7.60;99.90;;;;;;5068559;28;20236;-84
2022/11/21 08:14:37;;;;;;;71.22;9.27;;;7.60;99.90;;;;;;5067418;28;20719;-85
2022/11/21 08:17:04;;;;;;;71.60;10.33;;;7.60;99.90;;;;;;5067633;28;20171;-84
2022/11/21 08:19:30;;;;;;;71.38;8.60;;;7.60;99.90;;;;;;5065519;28;20501;-85
2022/11/21 08:21:56;;;;;;;72.30;9.93;;;7.60;99.90;;;;;;5067611;28;20176;-85
2022/11/21 08:24:22;;;;;;;68.67;10.10;;;7.60;99.90;;;;;;5067945;28;20204;-84
2022/11/21 08:26:48;;;;;;;70.90;10.60;;;7.60;99.90;;;;;;5067165;28;20165;-85
2022/11/21 08:29:16;;;;;;;72.57;9.47;;;7.60;99.90;;;;;;5066041;28;20172;-84
2022/11/21 08:31:43;;;;;;;71.95;9.57;;;7.60;99.90;;;;;;5067266;28;20175;-85
2022/11/21 08:34:09;;;;;;;82.05;9.80;;;7.70;99.90;;;;;;5068170;28;20165;-84
2022/11/21 08:36:35;;;;;;;72.20;9.55;;;7.60;99.90;;;;;;5067209;28;20173;-85
2022/11/21 08:39:02;;;;;;;71.90;9.70;;;7.70;99.90;;;;;;5067441;28;20268;-85
2022/11/21 08:44:12;;;;;;;70.13;9.90;;;7.70;99.90;;;;;;5067205;28;20200;-84
2022/11/21 08:46:38;;;;;;;71.83;9.10;;;7.70;99.90;;;;;;5067242;28;20157;-85
2022/11/21 08:49:04;;;;;;;71.28;9.00;;;7.80;99.90;;;;;;5064950;28;20169;-85
2022/11/21 08:51:30;;;;;;;72.18;11.23;;;7.80;99.90;;;;;;5066086;28;20164;-84
2022/11/21 08:53:56;;;;;;;69.57;9.80;;;7.80;99.90;;;;;;5065643;28;20172;-86
2022/11/21 08:56:21;;;;;;;81.03;14.30;;;7.80;99.90;;;;;;5063960;28;20477;-84
2022/11/21 08:58:47;;;;;;;71.40;10.43;;;7.90;99.90;;;;;;5065875;28;20238;-86
2022/11/21 09:01:13;;;;;;;69.57;9.97;;;7.90;99.90;;;;;;5067210;28;20173;-86
2022/11/21 09:03:39;;;;;;;73.07;11.57;;;7.90;99.90;;;;;;5063508;28;20198;-87
2022/11/21 09:06:04;;;;;;;76.67;12.80;;;7.80;99.90;;;;;;5063519;28;20645;-86
2022/11/21 09:08:30;;;;;;;72.77;13.27;;;7.80;99.90;;;;;;5064163;28;20168;-86
2022/11/21 09:10:56;;;;;;;74.33;11.87;;;8.00;99.90;;;;;;5064928;28;20192;-85
2022/11/21 09:13:22;;;;;;;70.27;9.80;;;8.00;99.90;;;;;;5064783;28;20533;-85
2022/11/21 09:18:32;;;;;;;74.72;13.13;;;8.10;99.90;;;;;;5069292;28;20226;-85
2022/11/21 09:20:58;;;;;;;74.33;12.50;;;8.20;99.90;;;;;;5066745;28;20184;-86
2022/11/21 09:23:24;;;;;;;76.07;11.63;;;8.20;99.90;;;;;;5065082;28;20403;-86
2022/11/21 09:25:50;;;;;;;75.63;11.50;;;8.20;99.90;;;;;;5066223;28;20387;-86
2022/11/21 09:28:15;;;;;;;72.70;11.20;;;8.10;99.90;;;;;;5066498;28;20180;-86
2022/11/21 09:30:42;;;;;;;71.60;11.47;;;8.10;99.90;;;;;;5065183;28;20431;-86
2022/11/21 09:33:13;;;;;;;79.63;10.80;;;8.20;99.90;;;;;;5064460;28;20171;-86
2022/11/21 09:35:39;;;;;;;76.82;10.80;;;8.20;99.90;;;;;;5064907;28;20695;-86
2022/11/21 09:38:05;;;;;;;70.55;9.80;;;8.10;99.90;;;;;;5065758;28;20240;-86
2022/11/21 09:40:35;;;;;;;72.95;11.00;;;8.20;99.90;;;;;;5064696;28;20190;-86
2022/11/21 09:43:12;;;;;;;73.95;12.02;;;8.30;99.90;;;;;;5063553;28;20160;-85
2022/11/21 09:45:47;;;;;;;72.97;9.60;;;8.30;99.90;;;;;;5063355;28;20176;-86
2022/11/21 09:48:23;;;;;;;71.95;10.82;;;8.50;99.90;;;;;;5063028;28;20190;-86
2022/11/21 09:50:54;;;;;;;72.40;9.00;;;8.40;99.90;;;;;;5062885;28;20195;-86
2022/11/21 09:53:30;;;;;;;70.47;8.30;;;8.40;99.90;;;;;;5062103;28;20173;-86
2022/11/21 09:56:14;;;;;;;71.53;7.65;;;8.50;99.90;;;;;;5063096;28;20622;-85
2022/11/21 09:58:48;;;;;;;70.25;9.18;;;8.70;99.90;;;;;;5061893;28;20195;-86
2022/11/21 10:01:15;;;;;;;83.07;8.48;;;8.70;99.90;;;;;;5062958;28;20554;-85
2022/11/21 10:03:49;;;;;;;69.95;9.32;;;8.90;99.90;;;;;;5063577;28;20188;-85
2022/11/21 10:06:21;;;;;;;73.40;7.35;;;8.70;99.90;;;;;;5063075;28;20156;-85
2022/11/21 10:08:53;;;;;;;70.20;8.40;;;8.70;99.90;;;;;;5063155;28;20191;-86
2022/11/21 10:14:39;;;;;;;69.47;7.30;;;8.70;99.90;;;;;;5063613;28;20182;-86
2022/11/21 10:17:21;;;;;;;71.60;7.13;;;8.80;99.90;;;;;;5063654;28;20153;-84
2022/11/21 10:20:05;;;;;;;68.45;6.63;;;9.00;99.90;;;;;;5064165;28;20699;-85
2022/11/21 10:22:45;;;;;;;68.97;7.18;;;9.10;99.90;;;;;;5063759;28;20152;-85
2022/11/21 10:25:24;;;;;;;67.03;6.25;;;9.00;99.90;;;;;;5061559;28;20195;-85
2022/11/21 10:27:56;;;;;;;69.10;7.35;;;9.00;99.90;;;;;;5062648;28;20175;-86
2022/11/21 10:30:22;;;;;;;70.25;6.32;;;8.90;99.90;;;;;;5062402;28;20242;-86
2022/11/21 10:32:56;;;;;;;69.93;7.18;;;8.90;99.90;;;;;;5062332;28;20539;-86
2022/11/21 10:35:29;;;;;;;72.13;6.45;;;8.80;99.90;;;;;;5064645;28;20157;-85
2022/11/21 10:38:21;;;;;;;67.88;6.28;;;8.80;99.90;;;;;;5062449;28;20181;-85
2022/11/21 10:41:24;;;;;;;69.70;6.13;;;8.80;99.90;;;;;;5062551;28;20186;-85
2022/11/21 10:47:00;;;;;;;67.57;6.20;;;8.80;99.90;;;;;;5063778;28;20187;-84
2022/11/21 10:49:32;;;;;;;66.13;5.03;;;8.80;99.90;;;;;;5061163;28;20596;-85
2022/11/21 10:52:12;;;;;;;68.78;5.18;;;9.00;99.90;;;;;;5061725;28;20519;-85
2022/11/21 10:55:03;;;;;;;73.72;5.47;;;9.20;99.90;;;;;;5062008;28;20161;-86
2022/11/21 10:57:38;;;;;;;66.75;4.50;;;9.40;99.90;;;;;;5061019;28;20511;-86
2022/11/21 11:00:11;;;;;;;65.38;4.97;;;9.60;99.90;;;;;;5061432;28;20261;-86
2022/11/21 11:02:36;;;;;;;66.00;4.75;;;9.80;99.90;;;;;;5061401;28;20172;-86
2022/11/21 11:05:20;;;;;;;67.13;4.40;;;9.70;99.90;;;;;;5062081;28;20169;-86
2022/11/21 11:08:00;;;;;;;69.68;4.10;;;9.50;99.90;;;;;;5062597;28;20173;-86
2022/11/21 11:10:26;;;;;;;65.85;4.10;;;9.60;99.90;;;;;;5062112;28;20224;-86
2022/11/21 11:15:38;;;;;;;68.22;4.05;;;9.70;99.90;;;;;;5062370;28;20414;-85
2022/11/21 11:18:05;;;;;;;65.50;4.35;;;9.70;99.90;;;;;;5062928;28;20188;-86
2022/11/21 11:20:43;;;;;;;69.60;4.60;;;9.80;99.90;;;;;;5062242;28;20181;-85
2022/11/21 11:23:22;;;;;;;65.35;4.53;;;9.60;99.90;;;;;;5061482;28;20152;-86
2022/11/21 11:25:51;;;;;;;64.95;4.22;;;9.70;99.90;;;;;;5061821;28;20172;-86
2022/11/21 11:28:18;;;;;;;65.65;3.88;;;9.90;99.90;;;;;;5060607;28;20239;-86
2022/11/21 11:30:44;;;;;;;66.57;4.10;;;9.90;99.90;;;;;;5061413;28;20184;-86
2022/11/21 11:33:36;;;;;;;64.22;3.55;;;10.00;99.90;;;;;;5061410;28;20164;-86
2022/11/21 11:36:13;;;;;;;64.35;3.45;;;9.90;99.90;;;;;;5061425;28;20567;-86
2022/11/21 11:38:53;;;;;;;70.85;4.05;;;9.90;99.90;;;;;;5060186;28;20180;-86
2022/11/21 11:47:55;;;;;;;67.57;4.85;;;9.80;99.90;;;;;;5039852;28;20176;-86
2022/11/21 11:50:31;;;;;;;67.25;3.88;;;9.80;99.90;;;;;;5059918;28;20208;-85
2022/11/21 11:53:06;;;;;;;66.85;3.67;;;9.90;99.90;;;;;;5062178;28;20160;-86
2022/11/21 11:55:55;;;;;;;70.10;3.60;;;9.90;99.90;;;;;;5061073;28;20184;-86
2022/11/21 11:58:35;;;;;;;67.32;3.72;;;9.80;99.90;;;;;;5062470;28;20260;-86
2022/11/21 12:01:16;;;;;;;65.75;3.70;;;9.80;99.90;;;;;;5061754;28;20271;-86
2022/11/21 12:04:09;;;;;;;66.32;3.72;;;9.70;99.90;;;;;;5060625;28;20164;-86
2022/11/21 12:06:47;;;;;;;69.65;4.10;;;9.70;99.90;;;;;;5060970;28;20187;-86
2022/11/21 12:09:21;;;;;;;66.40;3.92;;;9.70;99.90;;;;;;5062179;28;20172;-86
2022/11/21 12:12:14;;;;;;;68.20;4.55;;;9.60;99.90;;;;;;5060600;28;20164;-86
2022/11/21 12:18:01;;;;;;;66.53;4.47;;;9.70;99.90;;;;;;5060964;28;20279;-85
2022/11/21 12:20:35;;;;;;;66.07;3.70;;;9.70;99.90;;;;;;5060534;28;20685;-86
2022/11/21 12:23:04;;;;;;;70.10;4.32;;;9.60;99.90;;;;;;5060616;28;20148;-86
2022/11/21 12:25:38;;;;;;;64.78;3.78;;;9.60;99.90;;;;;;5060628;28;20692;-86
2022/11/21 12:28:14;;;;;;;66.85;3.30;;;9.70;99.90;;;;;;5058679;28;20172;-86
2022/11/21 12:31:03;;;;;;;71.25;4.35;;;9.60;99.90;;;;;;5059885;28;20185;-85
2022/11/21 12:33:33;;;;;;;67.03;4.05;;;9.60;99.90;;;;;;5058818;28;20198;-87
2022/11/21 12:36:32;;;;;;;69.63;4.47;;;9.60;99.90;;;;;;5059656;28;20175;-86
2022/11/21 12:39:26;;;;;;;66.10;4.32;;;9.70;99.90;;;;;;5057852;28;20600;-86
2022/11/21 12:45:23;;;;;;;67.55;4.00;;;9.80;99.90;;;;;;5059235;28;20183;-86
2022/11/21 12:56:39;;;;;;;65.55;3.55;;;9.70;99.90;;;;;;5062684;28;20224;-86
2022/11/21 12:59:08;;;;;;;65.40;3.30;;;9.60;86.30;;;;;;5060930;28;20184;-85
2022/11/21 13:02:00;;;;;;;66.65;3.50;;;9.50;60.70;;;;;;5062632;28;20157;-86
2022/11/21 13:04:37;;;;;;;67.90;3.40;;;9.60;64.50;;;;;;5060713;28;20224;-86
2022/11/21 13:07:04;;;;;;;67.72;4.18;;;9.80;69.50;;;;;;5060851;28;20159;-86
2022/11/21 13:09:37;;;;;;;65.78;3.80;;;9.80;68.70;;;;;;5061949;28;20206;-86
2022/11/21 13:12:26;;;;;;;66.50;4.13;;;9.80;69.70;;;;;;5062582;28;20153;-86
2022/11/21 13:14:54;;;;;;;66.55;4.38;;;9.60;61.20;;;;;;5062276;28;20180;-86
2022/11/21 13:18:01;;;;;;;66.43;4.10;;;9.70;73.80;;;;;;5061820;28;20161;-86
2022/11/21 13:20:49;;;;;;;67.38;3.67;;;9.80;78.40;;;;;;5053592;28;20235;-87
2022/11/21 13:23:35;;;;;;;68.43;3.53;;;9.70;74.00;;;;;;5061989;28;20176;-87
2022/11/21 13:26:01;;;;;;;66.20;3.55;;;9.70;77.40;;;;;;5060976;28;20174;-87
2022/11/21 13:28:31;;;;;;;68.77;3.40;;;9.60;74.30;;;;;;5062847;28;20251;-86
2022/11/21 13:31:00;;;;;;;66.65;3.80;;;9.40;69.60;;;;;;5061563;28;20430;-86
2022/11/21 13:33:35;;;;;;;65.85;3.85;;;9.40;73.00;;;;;;5063348;28;20168;-86
2022/11/21 13:36:11;;;;;;;64.38;3.17;;;9.50;69.20;;;;;;5063200;28;20164;-85
2022/11/21 13:38:52;;;;;;;66.85;3.60;;;9.40;57.30;;;;;;5062775;28;20184;-86
2022/11/21 13:44:30;;;;;;;66.95;3.55;;;9.20;57.20;;;;;;5063280;28;20163;-86
2022/11/21 13:46:58;;;;;;;68.13;3.95;;;9.30;59.70;;;;;;5061227;28;20176;-87
2022/11/21 13:49:32;;;;;;;71.20;3.65;;;9.30;57.30;;;;;;5059353;28;20216;-87
2022/11/21 13:52:09;;;;;;;67.38;4.32;;;9.40;59.90;;;;;;5060126;28;20164;-86